sensor_id;sensor_type;location;lat;lon;timestamp;P1;durP1;ratioP1;P2;durP2;ratioP2
13048;SDS011;6591;51.446;5.404;2023-12-28T00:02:17;2.30;;;2.10;;
13048;SDS011;6591;51.446;5.404;2023-12-28T00:04:44;2.00;;;1.80;;
13048;SDS011;6591;51.446;5.404;2023-12-28T00:07:11;3.07;;;2.40;;
13048;SDS011;6591;51.446;5.404;2023-12-28T00:09:39;2.80;;;2.00;;
13048;SDS011;6591;51.446;5.404;2023-12-28T00:12:07;2.70;;;2.03;;
13048;SDS011;6591;51.446;5.404;2023-12-28T00:14:34;3.07;;;2.30;;
13048;SDS011;6591;51.446;5.404;2023-12-28T00:17:01;4.37;;;2.40;;
13048;SDS011;6591;51.446;5.404;2023-12-28T00:19:28;2.53;;;2.03;;
13048;SDS011;6591;51.446;5.404;2023-12-28T00:21:55;3.73;;;2.00;;
13048;SDS011;6591;51.446;5.404;2023-12-28T00:24:22;3.10;;;2.43;;
13048;SDS011;6591;51.446;5.404;2023-12-28T00:26:49;3.07;;;2.20;;
13048;SDS011;6591;51.446;5.404;2023-12-28T00:29:16;2.67;;;2.10;;
13048;SDS011;6591;51.446;5.404;2023-12-28T00:31:43;3.13;;;2.47;;
13048;SDS011;6591;51.446;5.404;2023-12-28T00:34:10;2.23;;;2.03;;
13048;SDS011;6591;51.446;5.404;2023-12-28T00:36:37;3.87;;;2.80;;
13048;SDS011;6591;51.446;5.404;2023-12-28T00:39:05;2.90;;;2.50;;
13048;SDS011;6591;51.446;5.404;2023-12-28T00:41:32;2.23;;;2.03;;
13048;SDS011;6591;51.446;5.404;2023-12-28T00:43:59;3.30;;;2.27;;
13048;SDS011;6591;51.446;5.404;2023-12-28T00:46:28;3.07;;;2.30;;
13048;SDS011;6591;51.446;5.404;2023-12-28T00:48:55;2.93;;;2.60;;
13048;SDS011;6591;51.446;5.404;2023-12-28T00:51:22;3.03;;;2.50;;
13048;SDS011;6591;51.446;5.404;2023-12-28T00:53:49;2.80;;;2.30;;
13048;SDS011;6591;51.446;5.404;2023-12-28T00:56:16;4.53;;;3.30;;
13048;SDS011;6591;51.446;5.404;2023-12-28T00:58:44;3.00;;;2.30;;
13048;SDS011;6591;51.446;5.404;2023-12-28T01:01:11;4.63;;;2.63;;
13048;SDS011;6591;51.446;5.404;2023-12-28T01:03:39;4.73;;;2.33;;
13048;SDS011;6591;51.446;5.404;2023-12-28T01:06:06;3.20;;;2.57;;
13048;SDS011;6591;51.446;5.404;2023-12-28T01:08:34;4.23;;;2.40;;
13048;SDS011;6591;51.446;5.404;2023-12-28T01:11:01;4.07;;;2.50;;
13048;SDS011;6591;51.446;5.404;2023-12-28T01:13:29;4.43;;;2.50;;
13048;SDS011;6591;51.446;5.404;2023-12-28T01:15:57;3.10;;;2.43;;
13048;SDS011;6591;51.446;5.404;2023-12-28T01:18:25;4.43;;;2.50;;
13048;SDS011;6591;51.446;5.404;2023-12-28T01:20:52;3.03;;;2.50;;
13048;SDS011;6591;51.446;5.404;2023-12-28T01:23:20;3.00;;;2.50;;
13048;SDS011;6591;51.446;5.404;2023-12-28T01:25:47;3.17;;;2.30;;
13048;SDS011;6591;51.446;5.404;2023-12-28T01:28:14;3.77;;;2.50;;
13048;SDS011;6591;51.446;5.404;2023-12-28T01:30:41;2.83;;;2.10;;
13048;SDS011;6591;51.446;5.404;2023-12-28T01:33:10;2.90;;;2.07;;
13048;SDS011;6591;51.446;5.404;2023-12-28T01:35:37;4.57;;;2.37;;
13048;SDS011;6591;51.446;5.404;2023-12-28T01:38:06;2.50;;;2.13;;
13048;SDS011;6591;51.446;5.404;2023-12-28T01:40:35;3.00;;;2.03;;
13048;SDS011;6591;51.446;5.404;2023-12-28T01:43:02;2.47;;;2.23;;
13048;SDS011;6591;51.446;5.404;2023-12-28T01:45:29;3.53;;;2.23;;
13048;SDS011;6591;51.446;5.404;2023-12-28T01:47:57;4.37;;;2.10;;
13048;SDS011;6591;51.446;5.404;2023-12-28T01:50:27;4.47;;;2.53;;
13048;SDS011;6591;51.446;5.404;2023-12-28T01:52:55;3.93;;;2.60;;
13048;SDS011;6591;51.446;5.404;2023-12-28T01:55:26;2.33;;;1.90;;
13048;SDS011;6591;51.446;5.404;2023-12-28T01:57:57;4.00;;;2.40;;
13048;SDS011;6591;51.446;5.404;2023-12-28T02:00:25;4.53;;;2.20;;
13048;SDS011;6591;51.446;5.404;2023-12-28T02:02:52;5.80;;;2.10;;
13048;SDS011;6591;51.446;5.404;2023-12-28T02:05:21;3.80;;;2.57;;
13048;SDS011;6591;51.446;5.404;2023-12-28T02:07:48;2.73;;;2.23;;
13048;SDS011;6591;51.446;5.404;2023-12-28T02:10:15;4.10;;;2.20;;
13048;SDS011;6591;51.446;5.404;2023-12-28T02:12:42;4.70;;;2.30;;
13048;SDS011;6591;51.446;5.404;2023-12-28T02:15:09;3.43;;;2.13;;
13048;SDS011;6591;51.446;5.404;2023-12-28T02:17:40;2.37;;;2.00;;
13048;SDS011;6591;51.446;5.404;2023-12-28T02:20:20;2.93;;;2.00;;
13048;SDS011;6591;51.446;5.404;2023-12-28T02:22:49;3.53;;;1.93;;
13048;SDS011;6591;51.446;5.404;2023-12-28T02:25:17;3.83;;;2.37;;
13048;SDS011;6591;51.446;5.404;2023-12-28T02:27:45;4.20;;;2.10;;
13048;SDS011;6591;51.446;5.404;2023-12-28T02:30:16;3.40;;;2.20;;
13048;SDS011;6591;51.446;5.404;2023-12-28T02:32:57;3.23;;;2.30;;
13048;SDS011;6591;51.446;5.404;2023-12-28T02:35:44;3.23;;;2.23;;
13048;SDS011;6591;51.446;5.404;2023-12-28T02:38:21;3.43;;;2.40;;
13048;SDS011;6591;51.446;5.404;2023-12-28T02:40:51;5.90;;;2.37;;
13048;SDS011;6591;51.446;5.404;2023-12-28T02:43:19;3.97;;;2.10;;
13048;SDS011;6591;51.446;5.404;2023-12-28T02:45:46;2.83;;;2.30;;
13048;SDS011;6591;51.446;5.404;2023-12-28T02:48:13;5.40;;;2.50;;
13048;SDS011;6591;51.446;5.404;2023-12-28T02:50:40;3.57;;;2.20;;
13048;SDS011;6591;51.446;5.404;2023-12-28T02:53:07;4.53;;;2.43;;
13048;SDS011;6591;51.446;5.404;2023-12-28T02:55:35;3.30;;;2.57;;
13048;SDS011;6591;51.446;5.404;2023-12-28T02:58:02;3.33;;;2.10;;
13048;SDS011;6591;51.446;5.404;2023-12-28T03:00:30;2.83;;;1.90;;
13048;SDS011;6591;51.446;5.404;2023-12-28T03:02:57;2.73;;;2.30;;
13048;SDS011;6591;51.446;5.404;2023-12-28T03:05:24;4.37;;;2.10;;
13048;SDS011;6591;51.446;5.404;2023-12-28T03:07:51;5.50;;;2.10;;
13048;SDS011;6591;51.446;5.404;2023-12-28T03:10:18;2.33;;;1.90;;
13048;SDS011;6591;51.446;5.404;2023-12-28T03:12:45;4.80;;;2.00;;
13048;SDS011;6591;51.446;5.404;2023-12-28T03:15:12;4.17;;;2.00;;
13048;SDS011;6591;51.446;5.404;2023-12-28T03:17:40;3.87;;;2.20;;
13048;SDS011;6591;51.446;5.404;2023-12-28T03:20:10;3.60;;;2.23;;
13048;SDS011;6591;51.446;5.404;2023-12-28T03:22:37;5.77;;;2.10;;
13048;SDS011;6591;51.446;5.404;2023-12-28T03:25:04;3.70;;;2.23;;
13048;SDS011;6591;51.446;5.404;2023-12-28T03:27:32;3.47;;;2.07;;
13048;SDS011;6591;51.446;5.404;2023-12-28T03:29:59;7.93;;;2.00;;
13048;SDS011;6591;51.446;5.404;2023-12-28T03:32:26;3.87;;;2.00;;
13048;SDS011;6591;51.446;5.404;2023-12-28T03:34:53;5.07;;;2.10;;
13048;SDS011;6591;51.446;5.404;2023-12-28T03:37:20;3.33;;;1.70;;
13048;SDS011;6591;51.446;5.404;2023-12-28T03:39:47;6.00;;;2.60;;
13048;SDS011;6591;51.446;5.404;2023-12-28T03:42:14;5.17;;;1.90;;
13048;SDS011;6591;51.446;5.404;2023-12-28T03:44:41;5.80;;;2.10;;
13048;SDS011;6591;51.446;5.404;2023-12-28T03:47:08;4.20;;;2.00;;
13048;SDS011;6591;51.446;5.404;2023-12-28T03:49:35;3.37;;;1.70;;
13048;SDS011;6591;51.446;5.404;2023-12-28T03:52:02;3.43;;;2.03;;
13048;SDS011;6591;51.446;5.404;2023-12-28T03:54:30;5.53;;;1.97;;
13048;SDS011;6591;51.446;5.404;2023-12-28T03:56:57;7.23;;;2.40;;
13048;SDS011;6591;51.446;5.404;2023-12-28T03:59:24;5.00;;;2.10;;
13048;SDS011;6591;51.446;5.404;2023-12-28T04:01:52;6.03;;;2.20;;
13048;SDS011;6591;51.446;5.404;2023-12-28T04:04:19;4.60;;;1.90;;
13048;SDS011;6591;51.446;5.404;2023-12-28T04:06:49;4.77;;;2.03;;
13048;SDS011;6591;51.446;5.404;2023-12-28T04:09:17;2.93;;;1.80;;
13048;SDS011;6591;51.446;5.404;2023-12-28T04:11:45;5.80;;;2.13;;
13048;SDS011;6591;51.446;5.404;2023-12-28T04:14:13;6.27;;;2.17;;
13048;SDS011;6591;51.446;5.404;2023-12-28T04:16:40;7.20;;;2.00;;
13048;SDS011;6591;51.446;5.404;2023-12-28T04:19:07;7.73;;;2.10;;
13048;SDS011;6591;51.446;5.404;2023-12-28T04:21:35;5.47;;;2.50;;
13048;SDS011;6591;51.446;5.404;2023-12-28T04:24:03;4.93;;;2.07;;
13048;SDS011;6591;51.446;5.404;2023-12-28T04:26:30;5.47;;;2.50;;
13048;SDS011;6591;51.446;5.404;2023-12-28T04:28:57;7.13;;;2.10;;
13048;SDS011;6591;51.446;5.404;2023-12-28T04:31:24;5.03;;;1.80;;
13048;SDS011;6591;51.446;5.404;2023-12-28T04:33:52;5.47;;;1.80;;
13048;SDS011;6591;51.446;5.404;2023-12-28T04:36:19;4.33;;;2.20;;
13048;SDS011;6591;51.446;5.404;2023-12-28T04:38:47;8.37;;;2.17;;
13048;SDS011;6591;51.446;5.404;2023-12-28T04:41:14;5.73;;;1.93;;
13048;SDS011;6591;51.446;5.404;2023-12-28T04:43:41;7.97;;;2.70;;
13048;SDS011;6591;51.446;5.404;2023-12-28T04:46:08;5.63;;;2.13;;
13048;SDS011;6591;51.446;5.404;2023-12-28T04:48:35;6.93;;;2.10;;
13048;SDS011;6591;51.446;5.404;2023-12-28T04:51:04;4.83;;;2.27;;
13048;SDS011;6591;51.446;5.404;2023-12-28T04:53:31;11.10;;;2.90;;
13048;SDS011;6591;51.446;5.404;2023-12-28T04:55:58;7.80;;;2.67;;
13048;SDS011;6591;51.446;5.404;2023-12-28T04:58:25;7.33;;;2.20;;
13048;SDS011;6591;51.446;5.404;2023-12-28T05:00:53;7.83;;;2.10;;
13048;SDS011;6591;51.446;5.404;2023-12-28T05:03:20;6.43;;;2.47;;
13048;SDS011;6591;51.446;5.404;2023-12-28T05:05:47;5.03;;;2.37;;
13048;SDS011;6591;51.446;5.404;2023-12-28T05:08:15;9.07;;;2.43;;
13048;SDS011;6591;51.446;5.404;2023-12-28T05:10:42;5.70;;;2.40;;
13048;SDS011;6591;51.446;5.404;2023-12-28T05:13:10;6.10;;;2.40;;
13048;SDS011;6591;51.446;5.404;2023-12-28T05:15:37;7.97;;;2.20;;
13048;SDS011;6591;51.446;5.404;2023-12-28T05:18:04;11.43;;;2.60;;
13048;SDS011;6591;51.446;5.404;2023-12-28T05:20:34;7.57;;;2.40;;
13048;SDS011;6591;51.446;5.404;2023-12-28T05:23:01;10.07;;;2.70;;
13048;SDS011;6591;51.446;5.404;2023-12-28T05:25:28;7.63;;;2.00;;
13048;SDS011;6591;51.446;5.404;2023-12-28T05:27:55;10.27;;;2.60;;
13048;SDS011;6591;51.446;5.404;2023-12-28T05:30:22;6.27;;;2.47;;
13048;SDS011;6591;51.446;5.404;2023-12-28T05:32:49;8.63;;;2.47;;
13048;SDS011;6591;51.446;5.404;2023-12-28T05:35:16;6.20;;;2.27;;
13048;SDS011;6591;51.446;5.404;2023-12-28T05:37:43;8.03;;;2.00;;
13048;SDS011;6591;51.446;5.404;2023-12-28T05:40:11;6.27;;;1.80;;
13048;SDS011;6591;51.446;5.404;2023-12-28T05:42:38;9.00;;;2.60;;
13048;SDS011;6591;51.446;5.404;2023-12-28T05:45:05;6.57;;;2.50;;
13048;SDS011;6591;51.446;5.404;2023-12-28T05:47:32;8.83;;;2.20;;
13048;SDS011;6591;51.446;5.404;2023-12-28T05:50:00;6.30;;;2.33;;
13048;SDS011;6591;51.446;5.404;2023-12-28T05:52:29;4.93;;;2.10;;
13048;SDS011;6591;51.446;5.404;2023-12-28T05:54:56;4.47;;;2.00;;
13048;SDS011;6591;51.446;5.404;2023-12-28T05:57:24;5.37;;;1.77;;
13048;SDS011;6591;51.446;5.404;2023-12-28T05:59:54;7.23;;;2.30;;
13048;SDS011;6591;51.446;5.404;2023-12-28T06:02:21;8.40;;;2.30;;
13048;SDS011;6591;51.446;5.404;2023-12-28T06:04:48;6.23;;;2.30;;
13048;SDS011;6591;51.446;5.404;2023-12-28T06:07:15;9.80;;;2.40;;
13048;SDS011;6591;51.446;5.404;2023-12-28T06:09:42;9.03;;;2.57;;
13048;SDS011;6591;51.446;5.404;2023-12-28T06:12:09;7.30;;;3.03;;
13048;SDS011;6591;51.446;5.404;2023-12-28T06:14:36;6.57;;;2.47;;
13048;SDS011;6591;51.446;5.404;2023-12-28T06:17:03;7.53;;;2.40;;
13048;SDS011;6591;51.446;5.404;2023-12-28T06:19:31;6.73;;;2.60;;
13048;SDS011;6591;51.446;5.404;2023-12-28T06:21:58;7.47;;;2.37;;
13048;SDS011;6591;51.446;5.404;2023-12-28T06:24:25;8.83;;;2.70;;
13048;SDS011;6591;51.446;5.404;2023-12-28T06:26:52;7.03;;;2.40;;
13048;SDS011;6591;51.446;5.404;2023-12-28T06:29:19;8.93;;;2.63;;
13048;SDS011;6591;51.446;5.404;2023-12-28T06:31:46;6.13;;;2.53;;
13048;SDS011;6591;51.446;5.404;2023-12-28T06:34:14;7.43;;;2.60;;
13048;SDS011;6591;51.446;5.404;2023-12-28T06:36:41;6.50;;;2.03;;
13048;SDS011;6591;51.446;5.404;2023-12-28T06:39:09;6.80;;;2.70;;
13048;SDS011;6591;51.446;5.404;2023-12-28T06:41:36;8.43;;;2.50;;
13048;SDS011;6591;51.446;5.404;2023-12-28T06:44:04;8.20;;;2.50;;
13048;SDS011;6591;51.446;5.404;2023-12-28T06:46:31;10.67;;;2.93;;
13048;SDS011;6591;51.446;5.404;2023-12-28T06:48:58;8.13;;;2.17;;
13048;SDS011;6591;51.446;5.404;2023-12-28T06:51:25;10.07;;;3.03;;
13048;SDS011;6591;51.446;5.404;2023-12-28T06:53:53;8.63;;;2.63;;
13048;SDS011;6591;51.446;5.404;2023-12-28T06:56:20;9.90;;;2.53;;
13048;SDS011;6591;51.446;5.404;2023-12-28T06:58:47;8.50;;;2.80;;
13048;SDS011;6591;51.446;5.404;2023-12-28T07:01:14;9.20;;;2.67;;
13048;SDS011;6591;51.446;5.404;2023-12-28T07:03:41;10.60;;;2.63;;
13048;SDS011;6591;51.446;5.404;2023-12-28T07:06:08;7.63;;;2.23;;
13048;SDS011;6591;51.446;5.404;2023-12-28T07:08:35;10.97;;;2.93;;
13048;SDS011;6591;51.446;5.404;2023-12-28T07:11:03;12.43;;;2.90;;
13048;SDS011;6591;51.446;5.404;2023-12-28T07:13:31;9.00;;;2.60;;
13048;SDS011;6591;51.446;5.404;2023-12-28T07:15:58;7.40;;;2.40;;
13048;SDS011;6591;51.446;5.404;2023-12-28T07:18:27;11.07;;;3.23;;
13048;SDS011;6591;51.446;5.404;2023-12-28T07:20:55;9.53;;;2.37;;
13048;SDS011;6591;51.446;5.404;2023-12-28T07:23:22;6.47;;;2.80;;
13048;SDS011;6591;51.446;5.404;2023-12-28T07:25:49;8.03;;;2.60;;
13048;SDS011;6591;51.446;5.404;2023-12-28T07:28:17;8.20;;;2.40;;
13048;SDS011;6591;51.446;5.404;2023-12-28T07:30:46;14.83;;;2.90;;
13048;SDS011;6591;51.446;5.404;2023-12-28T07:33:14;8.63;;;2.73;;
13048;SDS011;6591;51.446;5.404;2023-12-28T07:35:41;7.53;;;2.23;;
13048;SDS011;6591;51.446;5.404;2023-12-28T07:38:08;7.37;;;2.50;;
13048;SDS011;6591;51.446;5.404;2023-12-28T07:40:35;6.43;;;2.00;;
13048;SDS011;6591;51.446;5.404;2023-12-28T07:43:02;12.53;;;3.00;;
13048;SDS011;6591;51.446;5.404;2023-12-28T07:45:30;6.47;;;2.30;;
13048;SDS011;6591;51.446;5.404;2023-12-28T07:48:01;9.13;;;2.77;;
13048;SDS011;6591;51.446;5.404;2023-12-28T07:50:29;7.43;;;2.73;;
13048;SDS011;6591;51.446;5.404;2023-12-28T07:52:56;8.60;;;2.37;;
13048;SDS011;6591;51.446;5.404;2023-12-28T07:55:23;9.03;;;2.37;;
13048;SDS011;6591;51.446;5.404;2023-12-28T07:57:50;8.10;;;3.10;;
13048;SDS011;6591;51.446;5.404;2023-12-28T08:00:17;9.87;;;2.80;;
13048;SDS011;6591;51.446;5.404;2023-12-28T08:02:44;6.90;;;2.20;;
13048;SDS011;6591;51.446;5.404;2023-12-28T08:05:11;10.33;;;2.63;;
13048;SDS011;6591;51.446;5.404;2023-12-28T08:07:38;6.77;;;2.00;;
13048;SDS011;6591;51.446;5.404;2023-12-28T08:10:05;7.73;;;2.93;;
13048;SDS011;6591;51.446;5.404;2023-12-28T08:12:33;8.33;;;2.30;;
13048;SDS011;6591;51.446;5.404;2023-12-28T08:15:00;12.87;;;2.60;;
13048;SDS011;6591;51.446;5.404;2023-12-28T08:17:27;5.73;;;1.97;;
13048;SDS011;6591;51.446;5.404;2023-12-28T08:19:54;7.57;;;2.57;;
13048;SDS011;6591;51.446;5.404;2023-12-28T08:22:22;10.03;;;2.67;;
13048;SDS011;6591;51.446;5.404;2023-12-28T08:24:49;11.47;;;2.73;;
13048;SDS011;6591;51.446;5.404;2023-12-28T08:27:16;8.83;;;2.80;;
13048;SDS011;6591;51.446;5.404;2023-12-28T08:29:43;8.63;;;2.93;;
13048;SDS011;6591;51.446;5.404;2023-12-28T08:32:11;9.90;;;2.73;;
13048;SDS011;6591;51.446;5.404;2023-12-28T08:34:39;10.03;;;2.70;;
13048;SDS011;6591;51.446;5.404;2023-12-28T08:37:06;6.70;;;2.07;;
13048;SDS011;6591;51.446;5.404;2023-12-28T08:39:33;9.10;;;2.50;;
13048;SDS011;6591;51.446;5.404;2023-12-28T08:42:05;7.73;;;2.20;;
13048;SDS011;6591;51.446;5.404;2023-12-28T08:44:32;12.67;;;2.90;;
13048;SDS011;6591;51.446;5.404;2023-12-28T08:47:00;8.27;;;2.53;;
13048;SDS011;6591;51.446;5.404;2023-12-28T08:49:28;13.23;;;3.20;;
13048;SDS011;6591;51.446;5.404;2023-12-28T08:51:55;11.43;;;3.17;;
13048;SDS011;6591;51.446;5.404;2023-12-28T08:54:22;9.70;;;2.83;;
13048;SDS011;6591;51.446;5.404;2023-12-28T08:56:50;13.33;;;3.20;;
13048;SDS011;6591;51.446;5.404;2023-12-28T08:59:19;9.30;;;3.10;;
13048;SDS011;6591;51.446;5.404;2023-12-28T09:01:47;9.70;;;2.93;;
13048;SDS011;6591;51.446;5.404;2023-12-28T09:04:14;8.47;;;2.50;;
13048;SDS011;6591;51.446;5.404;2023-12-28T09:06:41;9.30;;;2.60;;
13048;SDS011;6591;51.446;5.404;2023-12-28T09:09:08;11.43;;;2.80;;
13048;SDS011;6591;51.446;5.404;2023-12-28T09:11:35;11.47;;;2.93;;
13048;SDS011;6591;51.446;5.404;2023-12-28T09:14:02;11.33;;;3.23;;
13048;SDS011;6591;51.446;5.404;2023-12-28T09:16:29;12.00;;;2.60;;
13048;SDS011;6591;51.446;5.404;2023-12-28T09:18:56;8.60;;;2.53;;
13048;SDS011;6591;51.446;5.404;2023-12-28T09:21:23;8.10;;;2.87;;
13048;SDS011;6591;51.446;5.404;2023-12-28T09:23:52;12.03;;;2.30;;
13048;SDS011;6591;51.446;5.404;2023-12-28T09:26:20;7.70;;;2.47;;
13048;SDS011;6591;51.446;5.404;2023-12-28T09:28:47;8.53;;;2.73;;
13048;SDS011;6591;51.446;5.404;2023-12-28T09:31:13;10.83;;;3.17;;
13048;SDS011;6591;51.446;5.404;2023-12-28T09:33:41;9.23;;;2.47;;
13048;SDS011;6591;51.446;5.404;2023-12-28T09:36:09;12.77;;;3.07;;
13048;SDS011;6591;51.446;5.404;2023-12-28T09:38:39;10.40;;;2.63;;
13048;SDS011;6591;51.446;5.404;2023-12-28T09:41:12;9.67;;;2.73;;
13048;SDS011;6591;51.446;5.404;2023-12-28T09:43:46;11.73;;;3.10;;
13048;SDS011;6591;51.446;5.404;2023-12-28T09:46:32;11.97;;;2.47;;
13048;SDS011;6591;51.446;5.404;2023-12-28T09:48:59;8.77;;;2.50;;
13048;SDS011;6591;51.446;5.404;2023-12-28T09:51:26;9.00;;;2.80;;
13048;SDS011;6591;51.446;5.404;2023-12-28T09:53:53;10.70;;;2.67;;
13048;SDS011;6591;51.446;5.404;2023-12-28T09:56:21;7.53;;;2.17;;
13048;SDS011;6591;51.446;5.404;2023-12-28T09:58:51;7.33;;;1.97;;
13048;SDS011;6591;51.446;5.404;2023-12-28T10:01:19;10.20;;;3.13;;
13048;SDS011;6591;51.446;5.404;2023-12-28T10:03:47;8.20;;;2.50;;
13048;SDS011;6591;51.446;5.404;2023-12-28T10:06:14;9.80;;;2.53;;
13048;SDS011;6591;51.446;5.404;2023-12-28T10:08:44;9.40;;;2.73;;
13048;SDS011;6591;51.446;5.404;2023-12-28T10:11:15;8.33;;;2.73;;
13048;SDS011;6591;51.446;5.404;2023-12-28T10:13:48;6.70;;;2.57;;
13048;SDS011;6591;51.446;5.404;2023-12-28T10:16:15;8.20;;;2.30;;
13048;SDS011;6591;51.446;5.404;2023-12-28T10:18:43;21.93;;;2.73;;
13048;SDS011;6591;51.446;5.404;2023-12-28T10:21:11;7.53;;;2.50;;
13048;SDS011;6591;51.446;5.404;2023-12-28T10:23:39;6.93;;;2.50;;
13048;SDS011;6591;51.446;5.404;2023-12-28T10:26:07;10.00;;;2.73;;
13048;SDS011;6591;51.446;5.404;2023-12-28T10:28:35;8.10;;;2.70;;
13048;SDS011;6591;51.446;5.404;2023-12-28T10:31:07;7.17;;;2.20;;
13048;SDS011;6591;51.446;5.404;2023-12-28T10:33:35;8.23;;;2.77;;
13048;SDS011;6591;51.446;5.404;2023-12-28T10:36:05;10.03;;;2.73;;
13048;SDS011;6591;51.446;5.404;2023-12-28T10:38:35;9.40;;;2.67;;
13048;SDS011;6591;51.446;5.404;2023-12-28T10:41:06;8.50;;;2.70;;
13048;SDS011;6591;51.446;5.404;2023-12-28T10:43:56;7.53;;;2.60;;
13048;SDS011;6591;51.446;5.404;2023-12-28T10:46:36;7.83;;;2.60;;
13048;SDS011;6591;51.446;5.404;2023-12-28T10:49:12;9.17;;;2.27;;
13048;SDS011;6591;51.446;5.404;2023-12-28T10:51:43;11.40;;;3.50;;
13048;SDS011;6591;51.446;5.404;2023-12-28T11:00:10;9.50;;;3.03;;
13048;SDS011;6591;51.446;5.404;2023-12-28T11:02:48;8.03;;;3.10;;
13048;SDS011;6591;51.446;5.404;2023-12-28T11:05:20;10.17;;;3.27;;
13048;SDS011;6591;51.446;5.404;2023-12-28T11:07:50;11.87;;;3.07;;
13048;SDS011;6591;51.446;5.404;2023-12-28T11:10:21;9.17;;;2.23;;
13048;SDS011;6591;51.446;5.404;2023-12-28T11:12:54;8.20;;;2.47;;
13048;SDS011;6591;51.446;5.404;2023-12-28T11:15:24;7.57;;;2.67;;
13048;SDS011;6591;51.446;5.404;2023-12-28T11:17:53;10.20;;;2.93;;
13048;SDS011;6591;51.446;5.404;2023-12-28T11:20:20;8.90;;;2.60;;
13048;SDS011;6591;51.446;5.404;2023-12-28T11:22:48;11.83;;;2.90;;
13048;SDS011;6591;51.446;5.404;2023-12-28T11:25:17;8.57;;;2.70;;
13048;SDS011;6591;51.446;5.404;2023-12-28T11:27:45;12.60;;;2.80;;
13048;SDS011;6591;51.446;5.404;2023-12-28T11:30:13;9.03;;;2.67;;
13048;SDS011;6591;51.446;5.404;2023-12-28T11:32:41;13.03;;;3.50;;
13048;SDS011;6591;51.446;5.404;2023-12-28T11:35:13;14.63;;;3.47;;
13048;SDS011;6591;51.446;5.404;2023-12-28T11:37:42;9.67;;;2.93;;
13048;SDS011;6591;51.446;5.404;2023-12-28T11:40:17;12.40;;;3.00;;
13048;SDS011;6591;51.446;5.404;2023-12-28T11:42:49;10.83;;;3.13;;
13048;SDS011;6591;51.446;5.404;2023-12-28T11:45:19;11.43;;;3.43;;
13048;SDS011;6591;51.446;5.404;2023-12-28T11:48:02;12.13;;;3.27;;
13048;SDS011;6591;51.446;5.404;2023-12-28T11:50:31;11.93;;;3.73;;
13048;SDS011;6591;51.446;5.404;2023-12-28T11:52:58;9.47;;;3.10;;
13048;SDS011;6591;51.446;5.404;2023-12-28T11:55:26;13.10;;;3.37;;
13048;SDS011;6591;51.446;5.404;2023-12-28T11:57:53;9.10;;;2.63;;
13048;SDS011;6591;51.446;5.404;2023-12-28T12:00:20;9.60;;;2.60;;
13048;SDS011;6591;51.446;5.404;2023-12-28T12:02:52;11.57;;;2.73;;
13048;SDS011;6591;51.446;5.404;2023-12-28T12:05:19;12.80;;;2.77;;
13048;SDS011;6591;51.446;5.404;2023-12-28T12:07:49;13.97;;;3.63;;
13048;SDS011;6591;51.446;5.404;2023-12-28T12:10:16;11.63;;;3.37;;
13048;SDS011;6591;51.446;5.404;2023-12-28T12:12:43;11.10;;;3.30;;
13048;SDS011;6591;51.446;5.404;2023-12-28T12:15:11;9.80;;;2.90;;
13048;SDS011;6591;51.446;5.404;2023-12-28T12:17:38;13.17;;;3.47;;
13048;SDS011;6591;51.446;5.404;2023-12-28T12:20:06;11.80;;;3.00;;
13048;SDS011;6591;51.446;5.404;2023-12-28T12:22:35;8.67;;;3.17;;
13048;SDS011;6591;51.446;5.404;2023-12-28T12:25:03;9.60;;;2.87;;
13048;SDS011;6591;51.446;5.404;2023-12-28T12:27:32;12.13;;;3.43;;
13048;SDS011;6591;51.446;5.404;2023-12-28T12:29:59;12.23;;;3.33;;
13048;SDS011;6591;51.446;5.404;2023-12-28T12:32:26;11.20;;;2.87;;
13048;SDS011;6591;51.446;5.404;2023-12-28T12:34:54;14.47;;;2.70;;
13048;SDS011;6591;51.446;5.404;2023-12-28T12:37:21;11.00;;;3.13;;
13048;SDS011;6591;51.446;5.404;2023-12-28T12:39:49;12.80;;;3.73;;
13048;SDS011;6591;51.446;5.404;2023-12-28T12:42:17;10.93;;;2.83;;
13048;SDS011;6591;51.446;5.404;2023-12-28T12:44:44;9.07;;;2.50;;
13048;SDS011;6591;51.446;5.404;2023-12-28T12:47:12;8.43;;;2.93;;
13048;SDS011;6591;51.446;5.404;2023-12-28T12:49:39;13.40;;;3.20;;
13048;SDS011;6591;51.446;5.404;2023-12-28T12:52:09;8.63;;;2.90;;
13048;SDS011;6591;51.446;5.404;2023-12-28T12:54:39;10.57;;;2.90;;
13048;SDS011;6591;51.446;5.404;2023-12-28T12:57:06;12.87;;;3.23;;
13048;SDS011;6591;51.446;5.404;2023-12-28T12:59:33;11.57;;;3.53;;
13048;SDS011;6591;51.446;5.404;2023-12-28T13:02:00;10.50;;;3.13;;
13048;SDS011;6591;51.446;5.404;2023-12-28T13:04:27;6.43;;;2.37;;
13048;SDS011;6591;51.446;5.404;2023-12-28T13:06:55;8.20;;;2.40;;
13048;SDS011;6591;51.446;5.404;2023-12-28T13:09:22;13.10;;;3.17;;
13048;SDS011;6591;51.446;5.404;2023-12-28T13:11:49;9.57;;;3.70;;
13048;SDS011;6591;51.446;5.404;2023-12-28T13:14:18;18.60;;;3.30;;
13048;SDS011;6591;51.446;5.404;2023-12-28T13:16:46;9.33;;;2.87;;
13048;SDS011;6591;51.446;5.404;2023-12-28T13:19:14;6.37;;;2.40;;
13048;SDS011;6591;51.446;5.404;2023-12-28T13:21:41;11.53;;;2.83;;
13048;SDS011;6591;51.446;5.404;2023-12-28T13:24:09;9.83;;;3.10;;
13048;SDS011;6591;51.446;5.404;2023-12-28T13:26:36;10.20;;;3.23;;
13048;SDS011;6591;51.446;5.404;2023-12-28T13:29:03;8.17;;;2.60;;
13048;SDS011;6591;51.446;5.404;2023-12-28T13:31:32;13.87;;;2.70;;
13048;SDS011;6591;51.446;5.404;2023-12-28T13:33:59;9.87;;;3.20;;
13048;SDS011;6591;51.446;5.404;2023-12-28T13:36:26;9.30;;;2.90;;
13048;SDS011;6591;51.446;5.404;2023-12-28T13:38:55;11.37;;;3.10;;
13048;SDS011;6591;51.446;5.404;2023-12-28T13:41:24;10.87;;;2.97;;
13048;SDS011;6591;51.446;5.404;2023-12-28T13:43:51;10.73;;;3.03;;
13048;SDS011;6591;51.446;5.404;2023-12-28T13:46:20;8.43;;;2.63;;
13048;SDS011;6591;51.446;5.404;2023-12-28T13:48:47;11.10;;;3.10;;
13048;SDS011;6591;51.446;5.404;2023-12-28T13:51:14;9.60;;;3.23;;
13048;SDS011;6591;51.446;5.404;2023-12-28T13:53:41;13.70;;;3.30;;
13048;SDS011;6591;51.446;5.404;2023-12-28T13:56:08;12.37;;;3.63;;
13048;SDS011;6591;51.446;5.404;2023-12-28T13:58:35;10.23;;;3.10;;
13048;SDS011;6591;51.446;5.404;2023-12-28T14:01:03;7.27;;;2.73;;
13048;SDS011;6591;51.446;5.404;2023-12-28T14:03:30;11.20;;;3.23;;
13048;SDS011;6591;51.446;5.404;2023-12-28T14:05:57;10.93;;;2.93;;
13048;SDS011;6591;51.446;5.404;2023-12-28T14:08:25;16.40;;;3.23;;
13048;SDS011;6591;51.446;5.404;2023-12-28T14:10:51;13.40;;;3.90;;
13048;SDS011;6591;51.446;5.404;2023-12-28T14:13:18;12.47;;;2.80;;
13048;SDS011;6591;51.446;5.404;2023-12-28T14:15:47;11.03;;;2.47;;
13048;SDS011;6591;51.446;5.404;2023-12-28T14:18:14;8.30;;;3.03;;
13048;SDS011;6591;51.446;5.404;2023-12-28T14:20:42;18.40;;;4.43;;
13048;SDS011;6591;51.446;5.404;2023-12-28T14:23:09;13.63;;;3.30;;
13048;SDS011;6591;51.446;5.404;2023-12-28T14:25:36;9.30;;;2.40;;
13048;SDS011;6591;51.446;5.404;2023-12-28T14:28:04;12.07;;;3.10;;
13048;SDS011;6591;51.446;5.404;2023-12-28T14:30:31;9.03;;;3.20;;
13048;SDS011;6591;51.446;5.404;2023-12-28T14:32:59;10.83;;;3.10;;
13048;SDS011;6591;51.446;5.404;2023-12-28T14:35:27;11.80;;;2.83;;
13048;SDS011;6591;51.446;5.404;2023-12-28T14:37:54;7.17;;;2.73;;
13048;SDS011;6591;51.446;5.404;2023-12-28T14:40:21;8.87;;;2.60;;
13048;SDS011;6591;51.446;5.404;2023-12-28T14:42:48;6.87;;;2.60;;
13048;SDS011;6591;51.446;5.404;2023-12-28T14:45:16;7.30;;;2.60;;
13048;SDS011;6591;51.446;5.404;2023-12-28T14:47:43;15.83;;;2.80;;
13048;SDS011;6591;51.446;5.404;2023-12-28T14:50:11;12.67;;;2.83;;
13048;SDS011;6591;51.446;5.404;2023-12-28T14:52:39;8.67;;;2.67;;
13048;SDS011;6591;51.446;5.404;2023-12-28T14:55:09;8.70;;;2.60;;
13048;SDS011;6591;51.446;5.404;2023-12-28T14:57:36;10.47;;;2.67;;
13048;SDS011;6591;51.446;5.404;2023-12-28T15:00:04;9.87;;;2.87;;
13048;SDS011;6591;51.446;5.404;2023-12-28T15:02:32;8.80;;;2.50;;
13048;SDS011;6591;51.446;5.404;2023-12-28T15:04:59;7.87;;;2.63;;
13048;SDS011;6591;51.446;5.404;2023-12-28T15:07:27;7.17;;;2.20;;
13048;SDS011;6591;51.446;5.404;2023-12-28T15:09:54;8.93;;;2.73;;